Time;durP1;ratioP1;P1;durP2;ratioP2;P2;SDS_P1;SDS_P2;PMS_P1;PMS_P2;Temp;Humidity;BMP_temperature;BMP_pressure;BME280_temperature;BME280_humidity;BME280_pressure;Samples;Min_cycle;Max_cycle;Signal;HPM_P1;HPM_P2
2021/11/21 00:01:43;;;;;;;;;;;;;;;8.57;100.00;99207.81;5073618;28;19932;-81
2021/11/21 00:04:11;;;;;;;;;;;;;;;8.87;100.00;99210.81;5056625;28;19931;-81
2021/11/21 00:06:38;;;;;;;;;;;;;;;8.59;100.00;99227.69;5074452;28;20091;-81
2021/11/21 00:09:05;;;;;;;;;;;;;;;8.59;100.00;99226.88;5040454;28;19925;-81
2021/11/21 00:11:32;;;;;;;;;;;;;;;8.71;100.00;99218.88;5073186;28;19924;-81
2021/11/21 00:14:01;;;;;;;;;;;;;;;8.50;100.00;99219.00;5073350;28;19928;-81
2021/11/21 00:16:29;;;;;;;;;;;;;;;8.26;100.00;99219.09;5074588;28;19932;-81
2021/11/21 00:18:56;;;;;;;;;;;;;;;8.64;100.00;99218.13;5073169;28;19925;-81
2021/11/21 00:21:23;;;;;;;;;;;;;;;8.39;100.00;99226.59;5056596;28;19947;-81
2021/11/21 00:23:50;;;;;;;;;;;;;;;8.40;100.00;99242.13;5074265;28;19925;-81
2021/11/21 00:26:18;;;;;;;;;;;;;;;8.55;100.00;99238.06;5073143;28;19932;-81
2021/11/21 00:28:45;;;;;;;;;;;;;;;8.52;100.00;99227.75;5056371;28;20013;-81
2021/11/21 00:31:13;;;;;;;;;;;;;;;8.08;100.00;99230.28;5074389;28;19930;-81
2021/11/21 00:33:40;;;;;;;;;;;;;;;8.40;100.00;99247.69;5073095;28;19952;-82
2021/11/21 00:36:08;;;;;;;;;;;;;;;8.40;100.00;99235.75;5074215;28;19924;-82
2021/11/21 00:38:35;;;;;;;;;;;;;;;8.34;100.00;99232.59;5073046;28;19925;-81
2021/11/21 00:41:03;;;;;;;;;;;;;;;8.11;100.00;99223.13;5074164;28;19928;-81
2021/11/21 00:43:30;;;;;;;;;;;;;;;8.33;100.00;99224.66;5056388;28;19951;-82
2021/11/21 00:45:57;;;;;;;;;;;;;;;8.06;100.00;99201.25;5074179;28;20019;-81
2021/11/21 00:48:24;;;;;;;;;;;;;;;8.39;100.00;99207.09;5073941;28;20402;-81
2021/11/21 00:50:56;;;;;;;;;;;;;;;8.33;100.00;99213.53;5056195;28;19947;-81
2021/11/21 00:53:23;;;;;;;;;;;;;;;8.34;100.00;99215.09;5073762;28;19990;-81
2021/11/21 00:55:54;;;;;;;;;;;;;;;8.20;100.00;99204.78;5056236;28;20015;-81
2021/11/21 00:58:23;;;;;;;;;;;;;;;8.56;100.00;99216.56;5073007;28;19924;-82
2021/11/21 01:00:50;;;;;;;;;;;;;;;8.18;100.00;99206.41;5054588;28;19924;-82
2021/11/21 01:03:19;;;;;;;;;;;;;;;8.39;100.00;99217.47;5071570;28;19925;-82
2021/11/21 01:05:47;;;;;;;;;;;;;;;8.64;100.00;99209.75;5072816;28;19932;-81
2021/11/21 01:08:14;;;;;;;;;;;;;;;8.55;100.00;99210.22;5072850;28;19925;-82
2021/11/21 01:10:42;;;;;;;;;;;;;;;8.81;100.00;99220.00;5071272;28;20307;-82
2021/11/21 01:13:10;;;;;;;;;;;;;;;8.27;100.00;99226.28;5071502;28;19924;-82
2021/11/21 01:15:38;;;;;;;;;;;;;;;8.07;100.00;99205.66;5071594;28;19924;-82
2021/11/21 01:18:05;;;;;;;;;;;;;;;8.01;100.00;99230.28;5054720;28;19924;-81
2021/11/21 01:20:34;;;;;;;;;;;;;;;8.21;100.00;99225.09;5054905;28;20290;-82
2021/11/21 01:23:01;;;;;;;;;;;;;;;8.02;100.00;99215.19;5071466;28;19924;-82
2021/11/21 01:25:28;;;;;;;;;;;;;;;8.02;100.00;99215.19;5072368;28;20383;-82
2021/11/21 01:27:55;;;;;;;;;;;;;;;8.14;100.00;99217.53;5072600;28;20299;-82
2021/11/21 01:30:26;;;;;;;;;;;;;;;7.92;100.00;99229.16;5072707;28;19930;-82
2021/11/21 01:32:54;;;;;;;;;;;;;;;7.77;100.00;99231.16;5071346;28;19925;-82
2021/11/21 01:35:21;;;;;;;;;;;;;;;7.93;100.00;99234.31;5072407;28;19924;-81
2021/11/21 01:37:49;;;;;;;;;;;;;;;8.28;100.00;99228.66;5071316;28;20442;-82
2021/11/21 01:40:17;;;;;;;;;;;;;;;7.98;100.00;99241.47;5072367;28;20494;-82
2021/11/21 01:42:44;;;;;;;;;;;;;;;8.22;100.00;99235.84;5076139;28;20388;-82
2021/11/21 01:45:12;;;;;;;;;;;;;;;8.45;100.00;99233.31;5058365;28;19943;-82
2021/11/21 01:47:41;;;;;;;;;;;;;;;8.22;100.00;99224.72;5076258;28;19932;-82
2021/11/21 01:50:11;;;;;;;;;;;;;;;8.36;100.00;99240.56;5074771;28;20023;-82
2021/11/21 01:52:38;;;;;;;;;;;;;;;8.79;100.00;99231.56;5074674;28;20375;-82
2021/11/21 01:55:06;;;;;;;;;;;;;;;9.07;100.00;99236.94;5075612;28;19932;-82
2021/11/21 01:57:34;;;;;;;;;;;;;;;9.30;100.00;99232.78;5074744;28;20027;-82
2021/11/21 02:00:03;;;;;;;;;;;;;;;9.27;100.00;99231.59;5091581;28;20294;-82
2021/11/21 02:02:38;;;;;;;;;;;;;;;9.27;100.00;99236.41;5074815;28;20367;-82
2021/11/21 02:05:06;;;;;;;;;;;;;;;8.77;100.00;99235.94;5058102;28;19925;-82
2021/11/21 02:07:33;;;;;;;;;;;;;;;8.25;100.00;99226.69;5074173;28;19936;-82
2021/11/21 02:10:01;;;;;;;;;;;;;;;8.39;100.00;99234.94;5074579;28;19929;-82
2021/11/21 02:12:28;;;;;;;;;;;;;;;8.55;100.00;99238.06;5075690;28;19970;-82
2021/11/21 02:14:55;;;;;;;;;;;;;;;8.56;100.00;99238.84;5075622;28;19924;-82
2021/11/21 02:17:27;;;;;;;;;;;;;;;8.47;100.00;99224.56;5074313;28;19928;-82
2021/11/21 02:19:54;;;;;;;;;;;;;;;7.83;100.00;99226.00;5075440;28;20402;-82
2021/11/21 02:22:21;;;;;;;;;;;;;;;7.66;100.00;99224.84;5075281;28;19931;-82
2021/11/21 02:24:48;;;;;;;;;;;;;;;7.51;100.00;99245.53;5057858;28;19924;-82
2021/11/21 02:27:18;;;;;;;;;;;;;;;7.93;100.00;99239.88;5057678;28;19931;-82
2021/11/21 02:29:46;;;;;;;;;;;;;;;7.73;100.00;99238.72;5073891;28;19928;-82
2021/11/21 02:32:13;;;;;;;;;;;;;;;7.53;100.00;99223.66;5075316;28;19924;-81
2021/11/21 02:34:40;;;;;;;;;;;;;;;7.60;100.00;99232.00;5075146;28;19928;-82
2021/11/21 02:37:09;;;;;;;;;;;;;;;7.96;100.00;99238.28;5057074;28;19924;-82
2021/11/21 02:39:39;;;;;;;;;;;;;;;7.75;100.00;99239.13;5057441;28;19925;-82
2021/11/21 02:42:07;;;;;;;;;;;;;;;8.88;100.00;99231.91;5075211;28;19924;-82
2021/11/21 02:44:34;;;;;;;;;;;;;;;8.95;100.00;99226.28;5057152;28;20380;-82
2021/11/21 02:47:01;;;;;;;;;;;;;;;8.19;100.00;99214.34;5073643;28;19928;-82
2021/11/21 02:49:28;;;;;;;;;;;;;;;8.42;100.00;99220.22;5073974;28;20361;-82
2021/11/21 02:51:55;;;;;;;;;;;;;;;8.30;100.00;99237.38;5090569;28;19932;-82
2021/11/21 02:54:22;;;;;;;;;;;;;;;8.85;100.00;99232.72;5074708;28;20016;-82
2021/11/21 02:56:49;;;;;;;;;;;;;;;8.30;100.00;99226.25;5074765;28;19932;-82
2021/11/21 02:59:23;;;;;;;;;;;;;;;8.41;100.00;99213.06;5056675;28;20268;-82
2021/11/21 03:01:50;;;;;;;;;;;;;;;7.95;100.00;99225.56;5066003;28;19936;-82
2021/11/21 03:04:21;;;;;;;;;;;;;;;7.90;100.00;99226.78;5086502;28;20391;-82
2021/11/21 03:06:48;;;;;;;;;;;;;;;7.85;100.00;99232.75;5053234;28;19925;-81
2021/11/21 03:09:22;;;;;;;;;;;;;;;8.21;100.00;99237.00;5053400;28;19925;-82
2021/11/21 03:11:53;;;;;;;;;;;;;;;7.96;100.00;99244.63;5053302;28;19925;-82
2021/11/21 03:14:23;;;;;;;;;;;;;;;7.92;100.00;99248.63;5069285;28;20384;-81
2021/11/21 03:16:51;;;;;;;;;;;;;;;8.56;100.00;99238.84;5086489;28;20410;-82
2021/11/21 03:19:18;;;;;;;;;;;;;;;8.75;100.00;99238.34;5053167;28;19929;-82
2021/11/21 03:21:55;;;;;;;;;;;;;;;8.52;100.00;99236.09;5054170;28;20387;-82
2021/11/21 03:24:28;;;;;;;;;;;;;;;8.20;100.00;99232.63;5037193;28;19932;-82
2021/11/21 03:26:55;;;;;;;;;;;;;;;8.08;100.00;99237.84;5053034;28;19986;-82
2021/11/21 03:29:22;;;;;;;;;;;;;;;7.82;100.00;99230.75;5086580;28;19929;-82
2021/11/21 03:31:50;;;;;;;;;;;;;;;8.27;100.00;99237.41;5036403;28;19931;-82
2021/11/21 03:34:17;;;;;;;;;;;;;;;8.06;100.00;99254.94;5054055;28;19932;-81
2021/11/21 03:36:44;;;;;;;;;;;;;;;8.09;100.00;99231.88;5086277;28;20291;-82
2021/11/21 03:39:11;;;;;;;;;;;;;;;7.75;100.00;99241.91;5053979;28;19935;-81
2021/11/21 03:41:39;;;;;;;;;;;;;;;7.66;100.00;99266.56;5053883;28;19925;-81
2021/11/21 03:44:07;;;;;;;;;;;;;;;7.47;100.00;99252.28;5069061;28;20349;-82
2021/11/21 03:46:34;;;;;;;;;;;;;;;8.29;100.00;99258.06;5052598;28;20011;-82
2021/11/21 03:49:02;;;;;;;;;;;;;;;8.10;100.00;99250.16;5053611;28;19925;-82
2021/11/21 03:51:29;;;;;;;;;;;;;;;8.18;100.00;99251.72;5052526;28;19925;-82
2021/11/21 03:53:57;;;;;;;;;;;;;;;8.82;100.00;99247.47;5019503;28;19929;-82
2021/11/21 03:56:25;;;;;;;;;;;;;;;8.46;100.00;99245.28;5053634;28;19931;-82
2021/11/21 03:58:53;;;;;;;;;;;;;;;9.01;100.00;99244.13;5053497;28;19925;-82
2021/11/21 04:01:20;;;;;;;;;;;;;;;8.35;100.00;99245.31;5053565;28;19928;-82
2021/11/21 04:03:47;;;;;;;;;;;;;;;7.76;100.00;99251.84;5052850;28;19925;-82
2021/11/21 04:06:14;;;;;;;;;;;;;;;8.35;100.00;99252.88;5068641;28;19931;-82
2021/11/21 04:09:26;;;;;;;;;;;;;;;8.28;100.00;99258.47;5090458;28;19920;-82
2021/11/21 04:11:54;;;;;;;;;;;;;;;7.95;100.00;99259.72;5122746;28;19932;-82
2021/11/21 04:14:21;;;;;;;;;;;;;;;8.44;100.00;99258.78;5089179;28;19925;-82
2021/11/21 04:16:48;;;;;;;;;;;;;;;8.03;100.00;99266.88;5106136;28;19928;-82
2021/11/21 04:19:15;;;;;;;;;;;;;;;8.06;100.00;99277.19;5090257;28;19924;-82
2021/11/21 04:21:43;;;;;;;;;;;;;;;7.76;100.00;99284.41;5090249;28;19928;-82
2021/11/21 04:24:13;;;;;;;;;;;;;;;7.89;100.00;99283.59;5090239;28;19931;-82
2021/11/21 04:26:42;;;;;;;;;;;;;;;7.85;100.00;99282.81;5089274;28;19931;-82
2021/11/21 04:29:10;;;;;;;;;;;;;;;7.75;100.00;99280.03;5090098;28;20364;-82
2021/11/21 04:31:38;;;;;;;;;;;;;;;8.01;100.00;99265.69;5088810;28;19924;-82
2021/11/21 04:34:06;;;;;;;;;;;;;;;7.90;100.00;99273.25;5088734;28;19960;-82
2021/11/21 04:36:33;;;;;;;;;;;;;;;7.98;100.00;99269.28;5122790;28;19924;-82
2021/11/21 04:39:01;;;;;;;;;;;;;;;7.61;100.00;99275.28;5088992;28;19924;-82
2021/11/21 04:41:28;;;;;;;;;;;;;;;8.03;100.00;99279.97;5122658;28;19974;-82
2021/11/21 04:43:57;;;;;;;;;;;;;;;7.99;100.00;99277.22;5071813;28;19924;-82
2021/11/21 04:46:25;;;;;;;;;;;;;;;8.09;100.00;99281.19;5089931;28;19990;-82
2021/11/21 04:48:52;;;;;;;;;;;;;;;7.96;100.00;99278.03;5071860;28;19924;-82
2021/11/21 04:51:19;;;;;;;;;;;;;;;7.58;100.00;99273.31;5122676;28;19924;-82
2021/11/21 04:53:47;;;;;;;;;;;;;;;8.07;100.00;99272.44;5088685;28;20310;-82
2021/11/21 04:56:14;;;;;;;;;;;;;;;7.66;100.00;99279.66;5071628;28;19924;-82
2021/11/21 04:58:41;;;;;;;;;;;;;;;7.77;100.00;99281.22;5088721;28;19929;-82
2021/11/21 05:01:09;;;;;;;;;;;;;;;7.99;100.00;99276.41;5105298;28;19925;-82
2021/11/21 05:03:36;;;;;;;;;;;;;;;7.72;100.00;99289.19;5088286;28;19924;-82
2021/11/21 05:06:03;;;;;;;;;;;;;;;7.11;100.00;99282.03;5088387;28;19931;-82
2021/11/21 05:08:30;;;;;;;;;;;;;;;7.18;100.00;99276.47;5103859;28;19954;-82
2021/11/21 05:10:58;;;;;;;;;;;;;;;7.52;100.00;99288.00;5104583;28;19929;-82
2021/11/21 05:13:25;;;;;;;;;;;;;;;7.32;100.00;99284.84;5071620;28;20376;-82
2021/11/21 05:15:52;;;;;;;;;;;;;;;7.32;100.00;99287.59;5121890;28;19931;-81
2021/11/21 05:18:19;;;;;;;;;;;;;;;7.61;100.00;99278.06;5087821;28;20257;-82
2021/11/21 05:20:46;;;;;;;;;;;;;;;7.51;100.00;99284.44;5075644;28;19931;-82
2021/11/21 05:23:13;;;;;;;;;;;;;;;7.56;100.00;99284.03;5074446;28;19936;-82
2021/11/21 05:25:41;;;;;;;;;;;;;;;7.27;100.00;99282.44;5074371;28;19931;-82
2021/11/21 05:28:08;;;;;;;;;;;;;;;7.62;100.00;99279.66;5073933;28;19935;-82
2021/11/21 05:30:35;;;;;;;;;;;;;;;7.93;100.00;99283.59;5090581;28;19931;-82
2021/11/21 05:33:02;;;;;;;;;;;;;;;7.95;100.00;99287.56;5075489;28;20019;-82
2021/11/21 05:35:29;;;;;;;;;;;;;;;7.31;100.00;99286.81;5074169;28;19973;-82
2021/11/21 05:37:56;;;;;;;;;;;;;;;7.53;100.00;99287.59;5075225;28;19924;-82
2021/11/21 05:40:24;;;;;;;;;;;;;;;7.94;100.00;99283.19;5075030;28;19935;-82
2021/11/21 05:42:52;;;;;;;;;;;;;;;7.64;100.00;99282.84;5057479;28;19946;-82
2021/11/21 05:45:19;;;;;;;;;;;;;;;7.73;100.00;99280.44;5075135;28;19924;-82
2021/11/21 05:47:47;;;;;;;;;;;;;;;8.23;100.00;99287.53;5075133;28;19928;-82
2021/11/21 05:50:15;;;;;;;;;;;;;;;8.30;100.00;99293.06;5057164;28;19924;-82
2021/11/21 05:52:44;;;;;;;;;;;;;;;8.52;100.00;99286.22;5073608;28;20027;-82
2021/11/21 05:55:11;;;;;;;;;;;;;;;8.65;100.00;99287.34;5074925;28;19928;-82
2021/11/21 05:57:38;;;;;;;;;;;;;;;8.37;100.00;99283.91;5107005;28;20429;-82
2021/11/21 06:00:07;;;;;;;;;;;;;;;8.54;100.00;99285.81;5073098;28;19925;-82
2021/11/21 06:02:37;;;;;;;;;;;;;;;8.31;100.00;99291.06;5057084;28;19929;-82
2021/11/21 06:05:06;;;;;;;;;;;;;;;8.36;100.00;99302.59;5107059;28;20041;-82
2021/11/21 06:07:33;;;;;;;;;;;;;;;8.30;100.00;99298.63;5073258;28;20011;-82
2021/11/21 06:10:03;;;;;;;;;;;;;;;7.79;100.00;99305.84;5056736;28;20482;-82
2021/11/21 06:12:30;;;;;;;;;;;;;;;8.01;100.00;99305.44;5074640;28;19924;-82
2021/11/21 06:14:58;;;;;;;;;;;;;;;8.12;100.00;99309.00;5073073;28;19928;-82
2021/11/21 06:17:25;;;;;;;;;;;;;;;8.13;100.00;99310.59;5057255;28;19932;-82
2021/11/21 06:19:52;;;;;;;;;;;;;;;8.20;100.00;99299.44;5072954;28;19935;-82
2021/11/21 06:22:19;;;;;;;;;;;;;;;7.86;100.00;99300.31;5073450;28;20016;-82
2021/11/21 06:24:46;;;;;;;;;;;;;;;8.07;100.00;99312.19;5074192;28;20380;-82
2021/11/21 06:27:13;;;;;;;;;;;;;;;8.32;100.00;99304.59;5073178;28;19936;-82
2021/11/21 06:29:40;;;;;;;;;;;;;;;8.13;100.00;99301.44;5056193;28;20295;-82
2021/11/21 06:32:08;;;;;;;;;;;;;;;7.78;100.00;99310.66;5072138;28;20380;-82
2021/11/21 06:34:36;;;;;;;;;;;;;;;7.83;100.00;99307.44;5056708;28;19974;-84
2021/11/21 06:37:04;;;;;;;;;;;;;;;8.07;100.00;99325.31;5072930;28;19924;-81
2021/11/21 06:39:33;;;;;;;;;;;;;;;7.86;100.00;99328.13;5106153;28;19931;-79
2021/11/21 06:42:00;;;;;;;;;;;;;;;8.11;100.00;99318.53;5072899;28;19931;-79
2021/11/21 06:44:27;;;;;;;;;;;;;;;7.80;100.00;99329.72;5072483;28;19928;-80
2021/11/21 06:46:54;;;;;;;;;;;;;;;8.01;100.00;99311.00;5074046;28;19928;-80
2021/11/21 06:49:22;;;;;;;;;;;;;;;7.90;100.00;99329.72;5073846;28;19924;-81
2021/11/21 06:51:50;;;;;;;;;;;;;;;7.87;100.00;99319.38;5053132;28;19924;-81
2021/11/21 06:54:17;;;;;;;;;;;;;;;7.98;100.00;99336.84;5072659;28;19924;-81
2021/11/21 06:56:44;;;;;;;;;;;;;;;7.96;100.00;99332.88;5073189;28;19931;-81
2021/11/21 06:59:11;;;;;;;;;;;;;;;7.89;100.00;99349.59;5072849;28;20391;-81
2021/11/21 07:01:40;;;;;;;;;;;;;;;7.99;100.00;99348.78;5049616;28;20382;-81
2021/11/21 07:04:08;;;;;;;;;;;;;;;8.08;100.00;99347.19;5065846;28;19928;-81
2021/11/21 07:06:39;;;;;;;;;;;;;;;8.07;100.00;99348.38;5051856;28;19925;-81
2021/11/21 07:09:08;;;;;;;;;;;;;;;7.91;100.00;99345.19;5052927;28;20299;-81
2021/11/21 07:11:36;;;;;;;;;;;;;;;8.06;100.00;99349.56;5051657;28;20019;-81
2021/11/21 07:14:03;;;;;;;;;;;;;;;7.87;100.00;99344.41;5085958;28;19975;-81
2021/11/21 07:16:31;;;;;;;;;;;;;;;8.04;100.00;99351.94;5071638;28;19924;-81
2021/11/21 07:18:58;;;;;;;;;;;;;;;7.82;100.00;99361.50;5071759;28;20026;-81
2021/11/21 07:21:25;;;;;;;;;;;;;;;7.74;100.00;99364.69;5055556;28;19925;-82
2021/11/21 07:23:52;;;;;;;;;;;;;;;7.44;100.00;99362.28;5039065;28;19974;-81
2021/11/21 07:26:19;;;;;;;;;;;;;;;7.50;100.00;99362.69;5055768;28;19924;-82
2021/11/21 07:31:10;;;;;;;;;;;;;;;7.60;100.00;99370.25;5090716;28;19917;-82
2021/11/21 07:33:39;;;;;;;;;;;;;;;7.34;100.00;99388.09;5073962;28;19967;-82
2021/11/21 07:36:06;;;;;;;;;;;;;;;7.54;100.00;99388.50;5091471;28;19948;-82
2021/11/21 07:38:34;;;;;;;;;;;;;;;7.62;100.00;99376.22;5090300;28;20015;-82
2021/11/21 07:42:43;;;;;;;;;;;;;;;7.37;100.00;99401.19;5111471;27;19961;-82
2021/11/21 07:45:12;;;;;;;;;;;;;;;7.68;100.00;99406.00;5111892;28;20375;-82
2021/11/21 07:47:43;;;;;;;;;;;;;;;7.54;100.00;99417.13;5110747;28;20015;-82
2021/11/21 07:50:14;;;;;;;;;;;;;;;7.63;100.00;99419.50;5093757;28;19928;-82
2021/11/21 07:52:41;;;;;;;;;;;;;;;7.83;100.00;99424.28;5110444;28;19928;-82
2021/11/21 07:55:09;;;;;;;;;;;;;;;7.68;100.00;99422.69;5110755;28;20268;-82
2021/11/21 07:57:36;;;;;;;;;;;;;;;7.91;100.00;99430.66;5093562;28;19924;-82
2021/11/21 08:00:06;;;;;;;;;;;;;;;7.47;100.00;99422.66;5110560;28;19924;-82
2021/11/21 08:02:34;;;;;;;;;;;;;;;7.75;100.00;99433.84;5093561;28;19924;-82
2021/11/21 08:05:01;;;;;;;;;;;;;;;7.59;100.00;99433.41;5093703;28;19928;-82
2021/11/21 08:07:30;;;;;;;;;;;;;;;7.66;100.00;99443.75;5076777;28;19924;-82
2021/11/21 08:09:58;;;;;;;;;;;;;;;7.66;100.00;99441.78;5110152;28;20009;-82
2021/11/21 08:12:25;;;;;;;;;;;;;;;7.51;100.00;99434.59;5110120;28;19931;-82
2021/11/21 08:14:52;;;;;;;;;;;;;;;7.45;100.00;99447.28;5093510;28;20292;-82
2021/11/21 08:17:20;;;;;;;;;;;;;;;7.10;100.00;99452.75;5110228;28;19931;-82
2021/11/21 08:19:47;;;;;;;;;;;;;;;7.34;100.00;99458.38;5093079;28;19924;-82
2021/11/21 08:22:14;;;;;;;;;;;;;;;7.51;100.00;99440.16;5092914;28;19924;-82
2021/11/21 08:24:41;;;;;;;;;;;;;;;7.49;100.00;99436.97;5110802;28;19928;-80
2021/11/21 08:27:10;;;;;;;;;;;;;;;7.67;100.00;99446.13;5110901;28;19924;-81
2021/11/21 08:29:37;;;;;;;;;;;;;;;7.42;100.00;99442.53;5109869;28;19924;-81
2021/11/21 08:32:04;;;;;;;;;;;;;;;7.48;100.00;99440.94;5111117;28;19946;-81
2021/11/21 08:34:32;;;;;;;;;;;;;;;7.54;100.00;99438.56;5110538;28;19935;-81
2021/11/21 08:36:59;;;;;;;;;;;;;;;7.44;100.00;99433.78;5111254;28;19924;-82
2021/11/21 08:39:26;;;;;;;;;;;;;;;7.39;100.00;99446.09;5092771;28;19924;-82
2021/11/21 08:41:54;;;;;;;;;;;;;;;7.36;100.00;99444.09;5087836;28;19924;-82
2021/11/21 08:44:23;;;;;;;;;;;;;;;7.16;100.00;99451.16;5105515;28;19928;-80
2021/11/21 08:46:51;;;;;;;;;;;;;;;7.38;100.00;99445.28;5104102;28;19931;-80
2021/11/21 08:49:18;;;;;;;;;;;;;;;7.60;100.00;99448.09;5110931;28;20563;-81
2021/11/21 08:51:45;;;;;;;;;;;;;;;7.38;100.00;99449.25;5109497;28;19934;-81
2021/11/21 08:54:13;;;;;;;;;;;;;;;7.44;100.00;99456.81;5095483;28;20355;-81
2021/11/21 08:56:40;;;;;;;;;;;;;;;7.34;100.00;99457.59;5095889;28;19924;-81
2021/11/21 08:59:08;;;;;;;;;;;;;;;7.48;100.00;99465.97;5097132;28;19924;-82
2021/11/21 09:01:35;;;;;;;;;;;;;;;7.72;100.00;99465.22;5062519;28;20302;-82
2021/11/21 09:04:02;;;;;;;;;;;;;;;7.57;100.00;99477.50;5095677;28;19950;-81
2021/11/21 09:06:30;;;;;;;;;;;;;;;7.10;100.00;99480.53;5095185;28;19924;-80
2021/11/21 09:08:57;;;;;;;;;;;;;;;7.38;100.00;99480.63;5096812;28;20068;-80
2021/11/21 09:11:24;;;;;;;;;;;;;;;7.00;100.00;99484.03;5096920;28;19928;-81
2021/11/21 09:13:52;;;;;;;;;;;;;;;7.46;100.00;99487.81;5078339;28;20417;-82
2021/11/21 09:16:19;;;;;;;;;;;;;;;7.71;100.00;99496.22;5095481;28;20020;-82
2021/11/21 09:18:47;;;;;;;;;;;;;;;7.54;100.00;99499.75;5084962;28;19925;-82
2021/11/21 09:21:14;;;;;;;;;;;;;;;7.09;100.00;99520.59;5084343;28;19979;-80
2021/11/21 09:23:41;;;;;;;;;;;;;;;7.53;100.00;99492.59;5078183;28;19925;-81
2021/11/21 09:26:08;;;;;;;;;;;;;;;7.54;100.00;99488.63;5080280;28;20010;-86
2021/11/21 09:28:35;;;;;;;;;;;;;;;7.25;100.00;99509.97;5084279;28;19924;-85
2021/11/21 09:31:02;;;;;;;;;;;;;;;7.15;100.00;99505.13;5074635;28;19924;-85
2021/11/21 09:33:29;;;;;;;;;;;;;;;7.60;100.00;99504.53;5058190;28;20383;-82
2021/11/21 09:35:58;;;;;;;;;;;;;;;7.77;100.00;99509.31;5075081;28;19924;-81
2021/11/21 09:38:26;;;;;;;;;;;;;;;7.52;100.00;99507.66;5074681;28;19931;-81
2021/11/21 09:40:54;;;;;;;;;;;;;;;7.82;100.00;99505.38;5074708;28;19931;-91
2021/11/21 09:43:21;;;;;;;;;;;;;;;8.00;100.00;99501.41;5025490;28;19928;-93
2021/11/21 09:45:48;;;;;;;;;;;;;;;7.94;100.00;99519.69;5042362;28;20368;-82
2021/11/21 09:48:15;;;;;;;;;;;;;;;8.03;100.00;99530.44;5093594;28;20287;-83
2021/11/21 09:50:43;;;;;;;;;;;;;;;7.89;100.00;99522.88;5088836;28;19956;-83
2021/11/21 09:53:11;;;;;;;;;;;;;;;7.96;100.00;99534.03;5069443;28;19973;-84
2021/11/21 09:55:39;;;;;;;;;;;;;;;7.99;100.00;99533.22;5077995;28;19938;-85
2021/11/21 09:58:07;;;;;;;;;;;;;;;8.01;100.00;99530.84;5084885;28;20280;-83
2021/11/21 10:00:34;;;;;;;;;;;;;;;8.26;100.00;99530.91;5057477;28;19924;-83
2021/11/21 10:03:09;;;;;;;;;;;;;;;8.08;100.00;99518.91;5046451;28;19928;-83
2021/11/21 10:05:47;;;;;;;;;;;;;;;8.38;100.00;99519.38;5039941;28;20019;-83
2021/11/21 10:08:16;;;;;;;;;;;;;;;8.49;100.00;99534.09;5070086;28;20358;-84
2021/11/21 10:10:45;;;;;;;;;;;;;;;8.21;100.00;99529.28;5057159;28;20362;-83
2021/11/21 10:13:24;;;;;;;;;;;;;;;8.46;100.00;99529.31;5090615;28;19931;-80
2021/11/21 10:15:51;;;;;;;;;;;;;;;8.34;100.00;99544.44;5076979;28;20306;-82
2021/11/21 10:18:20;;;;;;;;;;;;;;;8.09;100.00;99543.56;5095142;28;19930;-82
2021/11/21 10:20:48;;;;;;;;;;;;;;;8.46;100.00;99549.63;5093746;28;19924;-82
2021/11/21 10:23:15;;;;;;;;;;;;;;;8.46;100.00;99544.03;5095308;28;20377;-82
2021/11/21 10:25:49;;;;;;;;;;;;;;;8.58;100.00;99549.22;5087576;28;19928;-81
2021/11/21 10:28:25;;;;;;;;;;;;;;;8.42;100.00;99554.38;5084730;28;19958;-83
2021/11/21 10:31:04;;;;;;;;;;;;;;;8.33;100.00;99565.09;5087459;28;19924;-82
2021/11/21 10:33:41;;;;;;;;;;;;;;;8.92;100.00;99561.50;5064828;28;19963;-84
2021/11/21 10:36:15;;;;;;;;;;;;;;;8.84;100.00;99570.28;5069408;28;19931;-83
2021/11/21 10:38:42;;;;;;;;;;;;;;;8.67;100.00;99557.97;5094673;28;19928;-83
2021/11/21 10:41:26;;;;;;;;;;;;;;;8.30;100.00;99568.69;5093400;28;19931;-83
2021/11/21 10:44:05;;;;;;;;;;;;;;;8.65;100.00;99560.34;5059928;28;20436;-83
2021/11/21 10:46:39;;;;;;;;;;;;;;;8.64;100.00;99569.09;5087893;28;19924;-84
2021/11/21 10:49:14;;;;;;;;;;;;;;;8.16;100.00;99577.00;5057567;28;19924;-86
2021/11/21 10:51:42;;;;;;;;;;;;;;;8.21;100.00;99576.59;5074070;28;19935;-86
2021/11/21 10:54:17;;;;;;;;;;;;;;;8.47;100.00;99575.47;5090674;28;19924;-95
2021/11/21 10:56:48;;;;;;;;;;;;;;;8.09;100.00;99565.06;5059449;28;20010;-93
2021/11/21 10:59:31;;;;;;;;;;;;;;;8.71;100.00;99581.03;5094071;28;20053;-86
2021/11/21 11:02:06;;;;;;;;;;;;;;;8.78;100.00;99569.88;5084180;28;20295;-84
2021/11/21 11:04:34;;;;;;;;;;;;;;;8.93;100.00;99565.91;5084462;28;19924;-83
2021/11/21 11:07:12;;;;;;;;;;;;;;;8.95;100.00;99569.06;5081290;28;20446;-83
2021/11/21 11:09:39;;;;;;;;;;;;;;;9.10;100.00;99561.50;5080227;28;20015;-85
2021/11/21 11:12:08;;;;;;;;;;;;;;;9.11;100.00;99575.03;5094097;28;20007;-85
2021/11/21 11:14:42;;;;;;;;;;;;;;;8.81;100.00;99590.59;5058013;28;19935;-82
2021/11/21 11:17:09;;;;;;;;;;;;;;;8.34;100.00;99580.63;5075716;28;20279;-84
2021/11/21 11:19:38;;;;;;;;;;;;;;;8.78;100.00;99575.44;5069082;28;19947;-83
2021/11/21 11:22:05;;;;;;;;;;;;;;;8.80;100.00;99573.06;5087606;28;19924;-82
2021/11/21 11:24:42;;;;;;;;;;;;;;;8.85;100.00;99563.50;5074023;28;19935;-81
2021/11/21 11:27:27;;;;;;;;;;;;;;;8.71;100.00;99569.09;5092715;28;20080;-82
2021/11/21 11:29:55;;;;;;;;;;;;;;;8.87;100.00;99567.50;5082046;28;19928;-80
2021/11/21 11:32:32;;;;;;;;;;;;;;;8.45;100.00;99578.63;5076713;28;19924;-84
2021/11/21 11:34:59;;;;;;;;;;;;;;;9.05;100.00;99568.28;5090606;28;20310;-84
2021/11/21 11:37:45;;;;;;;;;;;;;;;9.13;100.00;99577.41;5075668;28;19932;-84
2021/11/21 11:40:31;;;;;;;;;;;;;;;8.60;100.00;99571.09;5085697;28;20018;-83
2021/11/21 11:42:59;;;;;;;;;;;;;;;8.81;100.00;99574.69;5081069;28;19947;-84
2021/11/21 11:45:46;;;;;;;;;;;;;;;8.96;100.00;99576.25;5074103;28;19947;-85
2021/11/21 11:48:42;;;;;;;;;;;;;;;8.84;100.00;99567.50;5075763;28;20023;-83
2021/11/21 11:51:15;;;;;;;;;;;;;;;9.00;100.00;99571.47;5079697;28;19924;-84
2021/11/21 11:53:43;;;;;;;;;;;;;;;8.70;100.00;99584.22;5092536;28;19928;-84
2021/11/21 11:56:13;;;;;;;;;;;;;;;9.10;100.00;99569.84;5061169;28;19930;-83
2021/11/21 11:58:44;;;;;;;;;;;;;;;9.00;100.00;99582.59;5056249;28;20065;-84
2021/11/21 12:01:11;;;;;;;;;;;;;;;8.82;100.00;99575.44;5103504;28;19924;-83
2021/11/21 12:03:40;;;;;;;;;;;;;;;8.62;100.00;99588.19;5081709;28;19931;-84
2021/11/21 12:06:07;;;;;;;;;;;;;;;8.55;100.00;99585.41;5097593;28;20381;-86
2021/11/21 12:08:34;;;;;;;;;;;;;;;8.69;100.00;99580.63;5076426;28;20276;-85
2021/11/21 12:11:01;;;;;;;;;;;;;;;8.83;100.00;99583.41;5085445;28;19924;-84
2021/11/21 12:13:34;;;;;;;;;;;;;;;9.24;100.00;99588.53;5080257;28;20027;-81
2021/11/21 12:16:13;;;;;;;;;;;;;;;9.02;100.00;99596.13;5084548;28;19924;-81
2021/11/21 12:18:54;;;;;;;;;;;;;;;8.70;100.00;99587.00;5078078;28;19939;-81
2021/11/21 12:21:48;;;;;;;;;;;;;;;8.93;100.00;99599.34;5112757;28;19924;-81
2021/11/21 12:24:23;;;;;;;;;;;;;;;9.02;100.00;99596.94;5111809;28;19932;-82
2021/11/21 12:26:56;;;;;;;;;;;;;;;8.88;100.00;99612.88;5112969;28;19923;-81
2021/11/21 12:29:48;;;;;;;;;;;;;;;;;;;;;
2021/11/21 12:32:45;;;;;;;;;;;;;;;9.27;100.00;99596.09;5060262;28;20405;-82
2021/11/21 12:38:43;;;;;;;;;;;;;;;9.17;100.00;99592.13;5042230;28;19955;-83
2021/11/21 12:41:15;;;;;;;;;;;;;;;9.15;100.00;99595.31;5036921;28;20402;-82
2021/11/21 12:43:42;;;;;;;;;;;;;;;9.07;100.00;99584.59;5056455;28;20383;-82
2021/11/21 12:46:11;;;;;;;;;;;;;;;9.03;100.00;99592.16;5054659;28;20280;-82
2021/11/21 12:48:38;;;;;;;;;;;;;;;9.36;100.00;99596.47;5057953;28;20603;-81
2021/11/21 12:51:05;;;;;;;;;;;;;;;8.98;100.00;99596.13;5077724;28;19958;-82
2021/11/21 12:53:34;;;;;;;;;;;;;;;8.96;100.00;99608.88;5057281;28;20350;-83
2021/11/21 12:56:06;;;;;;;;;;;;;;;9.43;100.00;99597.25;5074467;28;19928;-83
2021/11/21 12:58:45;;;;;;;;;;;;;;;9.72;100.00;99592.34;5059400;28;19928;-83
2021/11/21 13:01:44;;;;;;;;;;;;;;;9.10;100.00;99597.72;5067511;28;19916;-82
2021/11/21 13:04:21;;;;;;;;;;;;;;;9.18;100.00;99605.66;5072033;28;19924;-84
2021/11/21 13:07:21;;;;;;;;;;;;;;;9.30;100.00;99592.50;5046122;28;19936;-83